Aragon, NM

9:18 PM MDT on September 01, 2014 (GMT -0600)
Largo Mesa | Change Station
CLOSE
Current Station
Personal Weather Station
Location: Quemado, NM
Elevation: 7812 ft
Nearby Weather Stations

Elev 7812 ft 34.26 °N, 108.58 °W | Updated 8 minutes ago

Clear
Clear
68.3 °F
Feels Like 68.3 °F
N
2.0
Wind Variable Wind from West
Gusts 5.0 mph

Today
High -- | Low -- °F
--% Chance of Precip.
Yesterday
High -- | Low -- °F
Precip. -- in
6:48 AM 7:40 PM
Waxing Crescent, 47% visible
Pressure 29.83 in
Visibility 10.0 miles
Clouds Clear
Dew Point 23 °F
Humidity 18%
Rainfall 0.00 in
Snow Depth Not available.
UV 0 out of 12
Pollen 8.50 out of 12
Air Quality Not available.
Flu Activity Not available.
METAR KSJN 020254Z AUTO 22008KT 10SM CLR 23/02 A3010 RMK AO2 SLP099 T02330022 53006

More Conditions Fewer Conditions

Pressure 29.83 in
Visibility 10.0 miles
Clouds Clear
Dew Point 23 °F
Humidity 18%
Rainfall 0.00 in
Snow Depth Not available.
UV 0 out of 12
Pollen 8.50 out of 12
Air Quality Not available.
Flu Activity Not available.
METAR KSJN 020254Z AUTO 22008KT 10SM CLR 23/02 A3010 RMK AO2 SLP099 T02330022 53006

More Conditions Fewer Conditions

10-Day Weather Forecast

Almanac

Astronomy

Sep. 01, 2014 Rise Set
Actual Time 6:48 AM MDT 7:40 PM MDT
Civil Twilight 6:22 AM MDT 8:05 PM MDT
Nautical Twilight 5:52 AM MDT 8:35 PM MDT
Astronomical Twilight 5:21 AM MDT 9:06 PM MDT
Moon 1:18 PM MDT (9/1) No Moon Set
Length of Visible Light 13h 42m
Length of Day
12h 51m
Tomorrow will be 2m 2s shorter.
Waxing Crescent, 47% of the Moon is Illuminated
Today
Waxing Crescent
Sep 2
First Quarter
Sep 8
Full
Sep 15
Last Quarter
Sep 24
New

Today's Extremes

State Highs State Lows

Community

WunderPhotos

Upload Photos

1,749,539 photos uploaded!

WunderBlogs® & News

Nearby

Snow Depth

Station Depth Elevation
Silver Creek Divide 13 in 9000 ft
Sierra Blanca 1 in 10280 ft
Quemazon 0 in 9500 ft
Santa Fe 0 in 11445 ft
Wesner Springs 2 in 11120 ft

Earthquake Activity

City Distance Mag. Time & Date
No recent earthquake activity has been reported nearby.
Minimum magnitude displayed is 2.5.

Coastal Water Temperatures

Place Temperature
No Stations Reporting

Nearby Weather Stations